Terminal Aerodrome Forecast
Issued by NWS

Home | Current Version | Previous Version | Text Only | Print | Product List | Glossary On
Versions: 1 2 3 4 5 6 7 8 9 10 11 12 13 14 15
000
FTUS46 KHNX 182336
TAFMCE
TAF

TAF
KFAT 182335Z 1900/1924 VRB03KT P6SM SCT200
     FM190600 VRB03KT 5SM HZ BKN250
     FM190900 VRB03KT 2SM BR SCT020 BKN250
     FM191800 13005KT 4SM HZ BR OVC060 PROB30 1918/1924 4SM -RA
      OVC040=

USA.gov is the U.S. government's official web portal to all federal, state and local government web resources and services.